createdAt,value
2023-11-23T00:01:40.624Z,5.60
2023-11-23T00:04:07.428Z,5.50
2023-11-23T00:06:34.163Z,5.50
2023-11-23T00:09:00.901Z,5.60
2023-11-23T00:11:27.586Z,5.60
2023-11-23T00:13:54.290Z,5.70
2023-11-23T00:16:21.044Z,5.70
2023-11-23T00:18:47.851Z,5.70
2023-11-23T00:21:14.619Z,5.70
2023-11-23T00:23:42.293Z,5.80
2023-11-23T00:26:09.540Z,5.80
2023-11-23T00:28:37.750Z,5.70
2023-11-23T00:31:05.080Z,5.80
2023-11-23T00:33:31.921Z,5.80
2023-11-23T00:35:58.710Z,5.80
2023-11-23T00:38:25.460Z,5.80
2023-11-23T00:40:52.243Z,5.90
2023-11-23T00:43:18.952Z,5.90
2023-11-23T00:45:46.024Z,6.00
2023-11-23T00:48:13.534Z,6.00
2023-11-23T00:50:40.946Z,6.00
2023-11-23T00:53:07.669Z,6.10
2023-11-23T00:55:34.312Z,6.10
2023-11-23T00:58:02.875Z,6.10
2023-11-23T01:00:31.042Z,6.10
2023-11-23T01:02:57.839Z,6.20
2023-11-23T01:05:24.584Z,6.20
2023-11-23T01:07:51.263Z,6.30
2023-11-23T01:10:17.921Z,6.20
2023-11-23T01:12:44.591Z,6.30
2023-11-23T01:15:13.216Z,6.20
2023-11-23T01:17:40.518Z,6.20
2023-11-23T01:20:08.802Z,6.30
2023-11-23T01:22:37.309Z,6.30
2023-11-23T01:25:09.369Z,6.30
2023-11-23T01:27:37.198Z,6.30
2023-11-23T01:30:04.970Z,6.30
2023-11-23T01:32:33.645Z,6.30
2023-11-23T01:35:00.416Z,6.40
2023-11-23T01:37:27.278Z,6.40
2023-11-23T01:39:54.968Z,6.50
2023-11-23T01:42:21.706Z,6.40
2023-11-23T01:44:48.561Z,6.30
2023-11-23T01:47:16.229Z,6.40
2023-11-23T01:49:46.409Z,6.40
2023-11-23T01:52:13.451Z,6.40
2023-11-23T01:54:40.417Z,6.40
2023-11-23T01:57:09.267Z,6.50
2023-11-23T01:59:37.091Z,6.30
2023-11-23T02:02:06.671Z,6.30
2023-11-23T02:04:33.576Z,6.20
2023-11-23T02:07:01.050Z,6.20
2023-11-23T02:09:29.812Z,6.20
2023-11-23T02:11:57.399Z,6.20
2023-11-23T02:14:25.071Z,6.20
2023-11-23T02:16:51.809Z,6.20
2023-11-23T02:19:18.549Z,6.30
2023-11-23T02:21:45.394Z,6.30
2023-11-23T02:24:12.725Z,6.30
2023-11-23T02:26:40.304Z,6.30
2023-11-23T02:29:07.050Z,6.30
2023-11-23T02:31:34.151Z,6.40
2023-11-23T02:34:01.567Z,6.40
2023-11-23T02:36:28.250Z,6.40
2023-11-23T02:38:54.984Z,6.40
2023-11-23T02:41:21.692Z,6.40
2023-11-23T02:43:49.899Z,6.30
2023-11-23T02:46:16.695Z,6.30
2023-11-23T02:48:43.467Z,6.30
2023-11-23T02:51:10.325Z,6.20
2023-11-23T02:53:44.723Z,6.20
2023-11-23T02:56:12.107Z,6.20
2023-11-23T02:58:42.936Z,6.20
2023-11-23T03:01:10.352Z,6.10
2023-11-23T03:03:37.198Z,6.10
2023-11-23T03:06:04.086Z,6.20
2023-11-23T03:08:30.795Z,6.20
2023-11-23T03:10:57.518Z,6.20
2023-11-23T03:13:25.418Z,6.20
2023-11-23T03:15:52.237Z,6.20
2023-11-23T03:18:19.244Z,6.10
2023-11-23T03:20:47.148Z,6.10
2023-11-23T03:23:14.240Z,6.00
2023-11-23T03:25:41.342Z,6.10
2023-11-23T03:28:08.485Z,6.10
2023-11-23T03:30:36.891Z,6.10
2023-11-23T03:33:04.068Z,6.20
2023-11-23T03:35:30.811Z,6.10
2023-11-23T03:37:57.559Z,6.00
2023-11-23T03:40:24.217Z,6.10
2023-11-23T03:42:50.895Z,6.20
2023-11-23T03:45:17.584Z,6.20
2023-11-23T03:47:44.459Z,6.20
2023-11-23T03:50:11.419Z,6.20
2023-11-23T03:52:39.536Z,6.30
2023-11-23T03:55:06.751Z,6.30
2023-11-23T03:57:33.404Z,6.40
2023-11-23T04:00:00.416Z,6.30
2023-11-23T04:02:27.573Z,6.40
2023-11-23T04:04:54.753Z,6.40
2023-11-23T04:07:21.406Z,6.40
2023-11-23T04:09:48.167Z,6.50
2023-11-23T04:12:15.474Z,6.50
2023-11-23T04:14:42.259Z,6.60
2023-11-23T04:17:08.915Z,6.60
2023-11-23T04:19:35.568Z,6.60
2023-11-23T04:22:02.972Z,6.50
2023-11-23T04:24:29.641Z,6.50
2023-11-23T04:26:56.294Z,6.50
2023-11-23T04:29:22.954Z,6.60
2023-11-23T04:31:49.591Z,6.70
2023-11-23T04:34:16.366Z,6.70
2023-11-23T04:36:43.116Z,6.80
2023-11-23T04:39:09.975Z,6.90
2023-11-23T04:41:37.847Z,7.00
2023-11-23T04:44:04.698Z,7.10
2023-11-23T04:46:31.555Z,7.20
2023-11-23T04:48:58.311Z,7.30
2023-11-23T04:51:25.135Z,7.30
2023-11-23T04:53:51.844Z,7.30
2023-11-23T04:56:19.406Z,7.30
2023-11-23T04:58:46.322Z,7.50
2023-11-23T05:01:13.037Z,7.40
2023-11-23T05:03:39.842Z,7.40
2023-11-23T05:06:08.274Z,7.50
2023-11-23T05:08:35.948Z,7.50
2023-11-23T05:11:02.758Z,7.50
2023-11-23T05:13:29.480Z,7.50
2023-11-23T05:15:56.450Z,7.50
2023-11-23T05:18:23.482Z,7.60
2023-11-23T05:20:50.336Z,7.50
2023-11-23T05:23:17.100Z,7.60
2023-11-23T05:25:43.830Z,7.60
2023-11-23T05:28:10.523Z,7.60
2023-11-23T05:30:37.290Z,7.70
2023-11-23T05:33:05.606Z,7.70
2023-11-23T05:35:32.379Z,7.80
2023-11-23T05:37:59.211Z,7.80
2023-11-23T05:40:25.982Z,7.70
2023-11-23T05:42:58.189Z,7.80
2023-11-23T05:45:31.843Z,7.80
2023-11-23T05:47:58.670Z,7.80
2023-11-23T05:50:25.385Z,7.70
2023-11-23T05:52:52.089Z,7.80
2023-11-23T05:55:18.745Z,7.90
2023-11-23T05:57:45.392Z,7.90
2023-11-23T06:00:13.254Z,7.90
2023-11-23T06:02:42.228Z,7.80
2023-11-23T06:05:09.911Z,7.80
2023-11-23T06:07:36.695Z,7.90
2023-11-23T06:10:06.002Z,7.90
2023-11-23T06:12:32.862Z,8.00
2023-11-23T06:14:59.901Z,8.00
2023-11-23T06:17:26.760Z,8.00
2023-11-23T06:19:53.584Z,7.90
2023-11-23T06:22:20.425Z,8.00
2023-11-23T06:24:47.145Z,8.00
2023-11-23T06:27:14.127Z,8.00
2023-11-23T06:29:40.796Z,8.00
2023-11-23T06:32:07.850Z,8.00
2023-11-23T06:34:37.722Z,8.00
2023-11-23T06:37:05.809Z,8.00
2023-11-23T06:39:36.968Z,8.10
2023-11-23T06:42:03.938Z,8.10
2023-11-23T06:44:30.664Z,8.20
2023-11-23T06:46:57.304Z,8.20
2023-11-23T06:49:23.961Z,8.20
2023-11-23T06:51:50.606Z,8.20
2023-11-23T06:54:17.283Z,8.20
2023-11-23T06:56:43.954Z,8.20
2023-11-23T06:59:10.659Z,8.20
2023-11-23T07:01:37.459Z,8.20
2023-11-23T07:04:05.196Z,8.20
2023-11-23T07:06:32.027Z,8.20
2023-11-23T07:09:00.094Z,8.20
2023-11-23T07:11:26.782Z,8.30
2023-11-23T07:13:53.429Z,8.30
2023-11-23T07:16:21.169Z,8.30
2023-11-23T07:18:47.980Z,8.40
2023-11-23T07:21:15.523Z,8.40
2023-11-23T07:23:42.590Z,8.40
2023-11-23T07:26:10.198Z,8.50
2023-11-23T07:28:36.877Z,8.50
2023-11-23T07:31:03.707Z,8.50
2023-11-23T07:33:35.166Z,8.50
2023-11-23T07:36:05.904Z,8.50
2023-11-23T07:38:35.638Z,8.50
2023-11-23T07:41:02.482Z,8.60
2023-11-23T07:43:31.684Z,8.60
2023-11-23T07:45:59.064Z,8.60
2023-11-23T07:48:25.836Z,8.70
2023-11-23T07:50:53.188Z,8.70
2023-11-23T07:53:22.947Z,8.70
2023-11-23T07:55:50.489Z,8.70
2023-11-23T07:58:17.355Z,8.80
2023-11-23T08:00:44.300Z,8.80
2023-11-23T08:03:11.405Z,8.80
2023-11-23T08:05:38.396Z,8.80
2023-11-23T08:08:05.387Z,8.80
2023-11-23T08:10:32.097Z,8.80
2023-11-23T08:12:59.573Z,8.70
2023-11-23T08:15:26.686Z,8.70
2023-11-23T08:17:58.949Z,8.80
2023-11-23T08:20:33.284Z,8.80
2023-11-23T08:23:00.393Z,8.80
2023-11-23T08:25:27.961Z,8.80
2023-11-23T08:27:54.623Z,8.90
2023-11-23T08:30:23.235Z,8.90
2023-11-23T08:32:50.237Z,8.80
2023-11-23T08:35:17.493Z,8.80
2023-11-23T08:37:44.245Z,8.80
2023-11-23T08:40:12.720Z,8.90
2023-11-23T08:42:40.222Z,8.90
2023-11-23T08:45:07.496Z,8.90
2023-11-23T08:47:34.424Z,8.90
2023-11-23T08:50:01.856Z,9.00
2023-11-23T08:52:29.039Z,8.90
2023-11-23T08:54:55.920Z,9.00
2023-11-23T08:57:22.691Z,9.00
2023-11-23T08:59:49.415Z,9.00
2023-11-23T09:02:20.480Z,9.00
2023-11-23T09:04:49.010Z,9.00
2023-11-23T09:07:16.249Z,9.00
2023-11-23T09:09:43.204Z,9.00
2023-11-23T09:12:09.950Z,9.00
2023-11-23T09:14:46.598Z,9.00
2023-11-23T09:17:16.907Z,9.00
2023-11-23T09:19:43.716Z,9.00
2023-11-23T09:22:11.320Z,9.00
2023-11-23T09:24:39.035Z,9.10
2023-11-23T09:27:07.426Z,9.00
2023-11-23T09:29:34.181Z,9.10
2023-11-23T09:32:00.982Z,9.20
2023-11-23T09:34:27.673Z,9.20
2023-11-23T09:36:54.329Z,9.20
2023-11-23T09:39:22.772Z,9.30
2023-11-23T09:41:51.077Z,9.30
2023-11-23T09:44:17.928Z,9.30
2023-11-23T09:46:46.485Z,9.30
2023-11-23T09:49:13.994Z,9.30
2023-11-23T09:51:42.794Z,9.40
2023-11-23T09:54:10.738Z,9.40
2023-11-23T09:56:37.464Z,9.40
2023-11-23T09:59:05.105Z,9.40
2023-11-23T10:01:34.422Z,9.40
2023-11-23T10:04:01.475Z,9.40
2023-11-23T10:06:28.507Z,9.60
2023-11-23T10:08:55.263Z,9.50
2023-11-23T10:11:22.411Z,9.50
2023-11-23T10:13:49.502Z,9.60
2023-11-23T10:16:17.008Z,9.60
2023-11-23T10:18:44.016Z,9.60
2023-11-23T10:21:12.798Z,9.60
2023-11-23T10:23:44.619Z,9.70
2023-11-23T10:26:11.702Z,9.70
2023-11-23T10:28:39.459Z,9.60
2023-11-23T10:31:06.836Z,9.60
2023-11-23T10:33:36.537Z,9.60
2023-11-23T10:36:05.876Z,9.60
2023-11-23T10:38:44.360Z,9.70
2023-11-23T10:41:12.714Z,9.70
2023-11-23T10:43:39.855Z,9.60
2023-11-23T10:46:10.561Z,9.70
2023-11-23T10:48:38.543Z,9.70
2023-11-23T10:51:07.124Z,9.70
2023-11-23T10:53:34.874Z,9.80
2023-11-23T10:56:25.838Z,9.80
2023-11-23T10:58:55.841Z,9.80
2023-11-23T11:01:26.851Z,9.80
2023-11-23T11:03:54.099Z,9.80
2023-11-23T11:06:24.017Z,9.80
2023-11-23T11:08:51.532Z,9.80
2023-11-23T11:11:22.088Z,9.70
2023-11-23T11:13:49.146Z,9.80
2023-11-23T11:16:19.121Z,9.80
2023-11-23T11:18:53.459Z,9.80
2023-11-23T11:21:27.119Z,9.90
2023-11-23T11:23:54.602Z,9.90
2023-11-23T11:26:27.023Z,9.90
2023-11-23T11:29:04.107Z,9.90
2023-11-23T11:31:36.748Z,9.90
2023-11-23T11:34:13.660Z,9.90
2023-11-23T11:36:40.524Z,9.90
2023-11-23T11:39:07.780Z,9.80
2023-11-23T11:41:38.696Z,9.90
2023-11-23T11:44:06.467Z,9.90
2023-11-23T11:46:36.491Z,9.90
2023-11-23T11:49:03.410Z,9.90
2023-11-23T11:51:32.852Z,9.90
2023-11-23T11:54:02.697Z,9.90
2023-11-23T11:56:29.706Z,10.00
2023-11-23T11:58:56.990Z,10.00
2023-11-23T12:01:23.665Z,10.00
2023-11-23T12:03:50.900Z,10.00
2023-11-23T12:06:21.141Z,10.00
2023-11-23T12:08:48.128Z,10.00
2023-11-23T12:11:28.126Z,10.10
2023-11-23T12:13:57.057Z,10.10
2023-11-23T12:16:34.490Z,10.10
2023-11-23T12:19:01.321Z,10.10
2023-11-23T12:21:30.455Z,10.10
2023-11-23T12:23:58.797Z,10.20
2023-11-23T12:26:25.679Z,10.10
2023-11-23T12:28:52.360Z,10.20
2023-11-23T12:31:22.550Z,10.10
2023-11-23T12:33:49.334Z,10.20
2023-11-23T12:36:17.044Z,10.20
2023-11-23T12:38:44.460Z,10.20
2023-11-23T12:41:12.595Z,10.30
2023-11-23T12:43:40.347Z,10.30
2023-11-23T12:46:07.127Z,10.20
2023-11-23T12:48:35.096Z,10.30
2023-11-23T12:51:01.987Z,10.30
2023-11-23T12:53:30.676Z,10.60
2023-11-23T12:55:57.678Z,10.50
2023-11-23T12:58:24.463Z,10.50
2023-11-23T13:00:51.259Z,10.50
2023-11-23T13:03:18.075Z,10.50
2023-11-23T13:05:47.656Z,10.40
2023-11-23T13:08:14.672Z,10.40
2023-11-23T13:10:42.152Z,10.40
2023-11-23T13:13:09.754Z,10.40
2023-11-23T13:15:36.756Z,10.40
2023-11-23T13:18:05.311Z,10.50
2023-11-23T13:20:32.632Z,10.50
2023-11-23T13:23:04.138Z,10.50
2023-11-23T13:25:31.316Z,10.40
2023-11-23T13:27:59.194Z,10.50
2023-11-23T13:30:26.211Z,10.50
2023-11-23T13:32:53.071Z,10.50
2023-11-23T13:35:20.134Z,10.60
2023-11-23T13:37:46.832Z,10.60
2023-11-23T13:40:14.157Z,10.60
2023-11-23T13:42:43.873Z,10.70
2023-11-23T13:45:14.078Z,10.70
2023-11-23T13:47:43.685Z,10.70
2023-11-23T13:50:14.587Z,10.60
2023-11-23T13:52:44.179Z,10.70
2023-11-23T13:55:10.978Z,10.70
2023-11-23T13:57:38.129Z,10.70
2023-11-23T14:00:21.114Z,10.70
2023-11-23T14:02:50.930Z,10.70
2023-11-23T14:05:17.826Z,10.70
2023-11-23T14:07:44.511Z,10.60
2023-11-23T14:10:14.517Z,10.80
2023-11-23T14:12:44.539Z,10.70
2023-11-23T14:15:12.335Z,10.80
2023-11-23T14:17:40.488Z,10.80
2023-11-23T14:20:08.220Z,10.80
2023-11-23T14:22:36.720Z,10.80
2023-11-23T14:25:04.574Z,10.80
2023-11-23T14:27:31.325Z,10.80
2023-11-23T14:29:58.029Z,10.80
2023-11-23T14:32:24.679Z,10.70
2023-11-23T14:34:51.643Z,10.70
2023-11-23T14:37:18.496Z,10.70
2023-11-23T14:39:45.621Z,10.70
2023-11-23T14:42:12.941Z,10.70
2023-11-23T14:44:40.282Z,10.70
2023-11-23T14:47:08.064Z,10.80
2023-11-23T14:49:35.188Z,10.80
2023-11-23T14:52:01.927Z,10.80
2023-11-23T14:54:35.279Z,10.80
2023-11-23T14:57:06.556Z,10.90
2023-11-23T14:59:33.432Z,10.80
2023-11-23T15:02:00.607Z,10.90
2023-11-23T15:04:27.580Z,10.80
2023-11-23T15:06:54.297Z,10.90
2023-11-23T15:09:21.933Z,10.90
2023-11-23T15:11:49.491Z,10.90
2023-11-23T15:14:16.910Z,10.90
2023-11-23T15:16:43.581Z,10.90
2023-11-23T15:19:11.066Z,10.90
2023-11-23T15:21:37.877Z,10.90
2023-11-23T15:24:05.004Z,11.00
2023-11-23T15:26:31.800Z,11.00
2023-11-23T15:29:00.293Z,10.90
2023-11-23T15:31:27.103Z,11.00
2023-11-23T15:33:54.056Z,11.00
2023-11-23T15:36:20.749Z,11.10
2023-11-23T15:38:49.232Z,11.10
2023-11-23T15:41:18.498Z,11.10
2023-11-23T15:43:45.546Z,11.10
2023-11-23T15:46:13.211Z,11.10
2023-11-23T15:48:40.050Z,11.20
2023-11-23T15:51:06.831Z,11.20
2023-11-23T15:53:33.536Z,11.10
2023-11-23T15:56:00.226Z,11.10
2023-11-23T15:58:27.865Z,11.20
2023-11-23T16:00:54.505Z,11.20
2023-11-23T16:03:21.697Z,11.20
2023-11-23T16:05:49.397Z,11.10
2023-11-23T16:08:16.273Z,11.10
2023-11-23T16:10:43.200Z,11.10
2023-11-23T16:13:10.975Z,11.10
2023-11-23T16:15:37.756Z,11.20
2023-11-23T16:18:04.625Z,11.20
2023-11-23T16:20:31.373Z,11.20
2023-11-23T16:22:58.103Z,11.20
2023-11-23T16:25:27.111Z,11.20
2023-11-23T16:27:53.871Z,11.20
2023-11-23T16:30:20.602Z,11.20
2023-11-23T16:32:47.423Z,11.30
2023-11-23T16:35:14.166Z,11.30
2023-11-23T16:37:40.932Z,11.40
2023-11-23T16:40:11.186Z,11.30
2023-11-23T16:42:42.578Z,11.20
2023-11-23T16:45:10.450Z,11.30
2023-11-23T16:47:37.805Z,11.30
2023-11-23T16:50:04.837Z,11.30
2023-11-23T16:52:31.537Z,11.30
2023-11-23T16:54:59.083Z,11.30
2023-11-23T16:57:25.784Z,11.40
2023-11-23T16:59:52.555Z,11.40
2023-11-23T17:02:20.049Z,11.40
2023-11-23T17:04:50.408Z,11.60
2023-11-23T17:07:19.286Z,11.50
2023-11-23T17:09:49.365Z,11.40
2023-11-23T17:12:16.143Z,11.40
2023-11-23T17:14:43.008Z,11.40
2023-11-23T17:17:09.770Z,11.40
2023-11-23T17:19:37.379Z,11.40
2023-11-23T17:22:04.541Z,11.40
2023-11-23T17:24:31.324Z,11.50
2023-11-23T17:26:58.016Z,11.50
2023-11-23T17:29:24.725Z,11.40
2023-11-23T17:31:58.526Z,11.40
2023-11-23T17:34:27.146Z,11.40
2023-11-23T17:36:54.077Z,11.40
2023-11-23T17:39:23.339Z,11.50
2023-11-23T17:41:50.052Z,11.40
2023-11-23T17:44:17.001Z,11.40
2023-11-23T17:46:44.682Z,11.40
2023-11-23T17:49:14.749Z,11.40
2023-11-23T17:51:44.427Z,11.40
2023-11-23T17:54:12.499Z,11.40
2023-11-23T17:56:39.862Z,11.40
2023-11-23T17:59:25.620Z,11.30
2023-11-23T18:02:04.422Z,11.30
2023-11-23T18:04:31.961Z,11.30
2023-11-23T18:06:58.678Z,11.30
2023-11-23T18:09:25.357Z,11.30
2023-11-23T18:11:52.056Z,11.30
2023-11-23T18:14:18.707Z,11.30
2023-11-23T18:16:46.136Z,11.40
2023-11-23T18:19:13.182Z,11.30
2023-11-23T18:21:41.275Z,11.30
2023-11-23T18:24:08.024Z,11.80
2023-11-23T18:26:34.671Z,11.80
2023-11-23T18:29:01.442Z,11.60
2023-11-23T18:31:28.132Z,11.40
2023-11-23T18:33:54.856Z,11.30
2023-11-23T18:36:22.824Z,11.30
2023-11-23T18:38:49.763Z,11.40
2023-11-23T18:41:17.202Z,11.40
2023-11-23T18:43:44.008Z,11.40
2023-11-23T18:46:12.343Z,11.30
2023-11-23T18:48:40.205Z,11.20
2023-11-23T18:51:07.838Z,11.20
2023-11-23T18:53:34.526Z,11.10
2023-11-23T18:56:01.192Z,11.00
2023-11-23T18:58:27.833Z,11.00
2023-11-23T19:00:55.148Z,11.10
2023-11-23T19:03:22.615Z,11.00
2023-11-23T19:05:51.095Z,11.00
2023-11-23T19:08:17.737Z,11.20
2023-11-23T19:10:46.985Z,11.40
2023-11-23T19:13:14.430Z,11.30
2023-11-23T19:15:41.609Z,11.10
2023-11-23T19:18:11.003Z,11.00
2023-11-23T19:20:39.671Z,10.90
2023-11-23T19:23:08.141Z,10.90
2023-11-23T19:25:35.650Z,10.90
2023-11-23T19:28:02.705Z,10.80
2023-11-23T19:30:29.714Z,10.80
2023-11-23T19:32:57.182Z,10.80
2023-11-23T19:35:26.387Z,10.80
2023-11-23T19:37:53.659Z,10.70
2023-11-23T19:40:24.287Z,10.70
2023-11-23T19:42:51.765Z,10.70
2023-11-23T19:45:19.537Z,10.60
2023-11-23T19:47:46.618Z,10.70
2023-11-23T19:50:13.879Z,10.80
2023-11-23T19:52:44.548Z,10.80
2023-11-23T19:55:12.691Z,10.80
2023-11-23T19:57:40.137Z,10.80
2023-11-23T20:00:07.914Z,10.80
2023-11-23T20:02:35.616Z,10.70
2023-11-23T20:05:04.224Z,10.70
2023-11-23T20:07:31.113Z,10.70
2023-11-23T20:10:00.865Z,10.70
2023-11-23T20:12:28.598Z,10.70
2023-11-23T20:14:55.380Z,10.70
2023-11-23T20:17:22.673Z,10.70
2023-11-23T20:19:49.881Z,10.70
2023-11-23T20:22:17.251Z,10.70
2023-11-23T20:24:44.336Z,10.70
2023-11-23T20:27:12.391Z,10.80
2023-11-23T20:29:39.129Z,10.80
2023-11-23T20:32:07.063Z,10.80
2023-11-23T20:34:33.948Z,10.70
2023-11-23T20:37:00.843Z,10.80
2023-11-23T20:39:31.654Z,10.70
2023-11-23T20:41:59.006Z,10.70
2023-11-23T20:44:25.786Z,10.60
2023-11-23T20:46:52.787Z,10.60
2023-11-23T20:49:19.929Z,10.60
2023-11-23T20:51:46.802Z,10.50
2023-11-23T20:54:13.552Z,10.50
2023-11-23T20:56:40.564Z,10.60
2023-11-23T20:59:07.622Z,10.60
2023-11-23T21:01:34.675Z,10.60
2023-11-23T21:04:01.959Z,10.60
2023-11-23T21:06:30.283Z,10.50
2023-11-23T21:08:57.339Z,10.60
2023-11-23T21:11:24.336Z,10.50
2023-11-23T21:13:51.051Z,10.50
2023-11-23T21:16:19.177Z,10.50
2023-11-23T21:18:45.977Z,10.60
2023-11-23T21:21:12.751Z,10.60
2023-11-23T21:23:40.044Z,10.50
2023-11-23T21:26:07.296Z,10.50
2023-11-23T21:28:35.251Z,10.50
2023-11-23T21:31:02.712Z,10.50
2023-11-23T21:33:29.712Z,10.60
2023-11-23T21:35:56.421Z,10.60
2023-11-23T21:38:23.156Z,10.60
2023-11-23T21:40:49.865Z,10.70
2023-11-23T21:43:16.579Z,10.70
2023-11-23T21:45:43.278Z,10.70
2023-11-23T21:48:10.612Z,10.70
2023-11-23T21:50:37.654Z,10.60
2023-11-23T21:53:04.676Z,10.60
2023-11-23T21:55:31.428Z,10.60
2023-11-23T21:58:00.996Z,10.60
2023-11-23T22:00:27.779Z,10.60
2023-11-23T22:02:54.562Z,10.50
2023-11-23T22:05:21.375Z,10.50
2023-11-23T22:07:48.074Z,10.60
2023-11-23T22:10:14.822Z,10.60
2023-11-23T22:12:43.904Z,10.60
2023-11-23T22:15:11.866Z,10.70
2023-11-23T22:17:38.767Z,10.70
2023-11-23T22:20:06.417Z,10.60
2023-11-23T22:22:33.440Z,10.70
2023-11-23T22:25:00.354Z,10.60
2023-11-23T22:27:29.057Z,10.60
2023-11-23T22:29:56.538Z,10.60
2023-11-23T22:32:26.405Z,10.60
2023-11-23T22:34:54.373Z,10.60
2023-11-23T22:37:21.372Z,10.60
2023-11-23T22:39:48.216Z,10.70
2023-11-23T22:42:15.990Z,10.70
2023-11-23T22:44:42.946Z,10.60
2023-11-23T22:47:09.826Z,10.60
2023-11-23T22:49:36.534Z,10.60
2023-11-23T22:52:05.164Z,10.60
2023-11-23T22:54:33.283Z,10.70
2023-11-23T22:57:00.026Z,10.60
2023-11-23T22:59:26.709Z,10.60
2023-11-23T23:01:53.536Z,10.60
2023-11-23T23:04:21.737Z,10.50
2023-11-23T23:06:48.631Z,10.50
2023-11-23T23:09:16.469Z,10.40
2023-11-23T23:11:43.268Z,10.50
2023-11-23T23:14:10.652Z,10.50
2023-11-23T23:16:37.362Z,10.50
2023-11-23T23:19:04.454Z,10.50
2023-11-23T23:21:32.572Z,10.60
2023-11-23T23:23:59.476Z,10.60
2023-11-23T23:26:26.215Z,10.70
2023-11-23T23:28:53.018Z,10.60
2023-11-23T23:31:19.733Z,10.60
2023-11-23T23:33:46.541Z,10.50
2023-11-23T23:36:13.267Z,10.40
2023-11-23T23:38:40.307Z,10.30
2023-11-23T23:41:07.880Z,10.30
2023-11-23T23:43:40.358Z,10.30
2023-11-23T23:46:07.037Z,10.30
2023-11-23T23:48:33.821Z,10.30
2023-11-23T23:51:01.120Z,10.20
2023-11-23T23:53:28.001Z,10.00
2023-11-23T23:55:57.975Z,9.80
2023-11-23T23:58:25.804Z,9.70
